Monterey, IN (46960)

02:55 EDT le 27 Mars 2015 (GMT -0400)
KINCULVE3 | | Change Station
CLOSE
Current Station
Stations météorologiques personnelles
Location: Culver, IN
Altitude: 791 ft
Stations météo à proximité

Alt. 791 ft 41.23 °N, 86.42 °W | Updated 7 seconds ago

Nuageux
Nuageux
31.5 ° F
Paraît 23 ° F
N
10.5
Vent Variable Vent de NNO
Gusts 12.3 mph

Aujourd'hui
Haut(e) -- | Bas -- ° F
--% Risque de précip.
Hier
Haut(e) -- | Bas -- ° F
Precip. -- pouce
7:38 AM 8:05 PM
Lune montante, 50% visible
Pression 30.01 pouce
Visibilité 10.0 Miles terrestres
Nuages Nuages épars 4900 ft
Refroidissement éolien 23 ° F
Point de rosée 21 ° F
Humidité 64%
Précipitations 0.00 pouce
Profondeur de la couche neigeuse Non disponible.
UV 0.0 sur 12
Pollen 1.10 sur 12
Qualité de l'air Non disponible.
Flu Activity Non disponible.
METAR KRCR 270635Z AUTO 34008KT 10SM SCT049 00/M02 A3001 RMK AO2

More Conditions Fewer Conditions

Pression 30.01 pouce
Visibilité 10.0 Miles terrestres
Nuages Nuages épars 4900 ft
Refroidissement éolien 23 ° F
Point de rosée 21 ° F
Humidité 64%
Précipitations 0.00 pouce
Profondeur de la couche neigeuse Non disponible.
UV 0.0 sur 12
Pollen 1.10 sur 12
Qualité de l'air Non disponible.
Flu Activity Non disponible.
METAR KRCR 270635Z AUTO 34008KT 10SM SCT049 00/M02 A3001 RMK AO2

More Conditions Fewer Conditions

10-Day Weather Forecast

Almanac

Astronomie

Mar. 27, 2015 Lever Coucher
Temps réel
Crépuscule civil
Crépuscule nautique
Crépuscule astronomique
Lune
Durée de lumière visible
Longueur du jour
Tomorrow will be .
, % of the Moon is Illuminated

Extrêmes aujourd'hui

State Highs State Lows

Community

WunderPhotos

Upload Photos

1,808,700 Photos téléchargées !

WunderBlogs® & News

Nearby

Qualité de l'air

  Qualité de l'air Indice de la qualité de l'air Polluant
Not available.

Épaisseur de neige

Station Depth Altitude

Activité sismique

Ville Distance Mag. Time & Date
Minimum magnitude displayed is 2.5.

Températures des eaux côtières

Lieu Température

Stations

Stations météo à proximité

Emplacement de la station Température Refroidissement éolien Point de rosée Humidité Vent Precip. Alt. Mise à jour Type